METAR Data
IDs: Format: Raw Decoded Include TAF

Data at: 1308 UTC 26 Feb 2021

LFQQ 261300Z AUTO 33011KT 300V360 9999 FEW037 10/02 Q1036 NOSIG